createdAt,value
2022-08-07T00:01:44.326Z,97739.58
2022-08-07T00:04:09.703Z,97737.78
2022-08-07T00:06:40.903Z,97736.65
2022-08-07T00:09:22.331Z,97738.42
2022-08-07T00:11:55.997Z,97741.54
2022-08-07T00:14:31.057Z,97742.97
2022-08-07T00:17:02.381Z,97749.64
2022-08-07T00:19:59.969Z,97748.90
2022-08-07T00:22:24.382Z,97751.11
2022-08-07T00:25:15.831Z,97752.05
2022-08-07T00:27:53.485Z,97754.56
2022-08-07T00:30:26.810Z,97753.21
2022-08-07T00:32:58.327Z,97755.55
2022-08-07T00:35:30.110Z,97760.40
2022-08-07T00:37:59.857Z,97758.33
2022-08-07T00:40:39.940Z,97759.13
2022-08-07T00:43:59.194Z,97759.56
2022-08-07T00:46:00.385Z,97761.52
2022-08-07T00:48:32.325Z,97760.48
2022-08-07T00:51:02.878Z,97763.03
2022-08-07T00:53:39.378Z,97764.88
2022-08-07T00:56:19.158Z,97765.45
2022-08-07T00:58:49.972Z,97765.05
2022-08-07T01:01:20.495Z,97763.00
2022-08-07T01:03:56.343Z,97759.73
2022-08-07T01:06:29.385Z,97760.77
2022-08-07T01:09:00.920Z,97758.42
2022-08-07T01:12:23.278Z,97758.07
2022-08-07T01:14:28.757Z,97760.10
2022-08-07T01:16:58.600Z,97766.73
2022-08-07T01:19:32.484Z,97769.20
2022-08-07T01:22:03.258Z,97770.20
2022-08-07T01:24:39.641Z,97768.04
2022-08-07T01:27:19.945Z,97769.39
2022-08-07T01:29:50.673Z,97767.42
2022-08-07T01:32:22.371Z,97767.59
2022-08-07T01:34:53.805Z,97773.98
2022-08-07T01:37:22.328Z,97774.23
2022-08-07T01:39:52.960Z,97770.17
2022-08-07T01:42:38.329Z,97768.41
2022-08-07T01:45:18.375Z,97770.81
2022-08-07T01:48:29.847Z,97767.34
2022-08-07T01:50:50.486Z,97773.14
2022-08-07T01:54:09.571Z,97773.82
2022-08-07T01:56:16.459Z,97771.75
2022-08-07T01:59:03.039Z,97772.98
2022-08-07T02:02:02.855Z,97776.92
2022-08-07T02:04:32.109Z,97769.83
2022-08-07T02:07:05.177Z,97769.88
2022-08-07T02:09:52.912Z,97769.46
2022-08-07T02:12:31.039Z,97766.86
2022-08-07T02:15:06.074Z,97769.70
2022-08-07T02:17:49.620Z,97772.83
2022-08-07T02:20:23.437Z,97773.16
2022-08-07T02:22:59.718Z,97776.27
2022-08-07T02:26:10.822Z,97781.48
2022-08-07T02:28:24.447Z,97780.77
2022-08-07T02:30:54.792Z,97787.02
2022-08-07T02:33:32.868Z,97784.98
2022-08-07T02:36:30.779Z,97785.80
2022-08-07T02:39:16.253Z,97789.70
2022-08-07T02:41:54.569Z,97791.88
2022-08-07T02:44:27.497Z,97791.02
2022-08-07T02:47:01.812Z,97793.98
2022-08-07T02:49:57.965Z,97794.96
2022-08-07T02:52:30.931Z,97792.70
2022-08-07T02:55:15.265Z,97792.45
2022-08-07T02:58:03.034Z,97790.95
2022-08-07T03:00:35.423Z,97792.14
2022-08-07T03:03:07.572Z,97796.55
2022-08-07T03:05:44.841Z,97799.49
2022-08-07T03:08:14.268Z,97802.88
2022-08-07T03:10:47.219Z,97805.95
2022-08-07T03:13:20.246Z,97806.16
2022-08-07T03:15:56.395Z,97809.30
2022-08-07T03:18:34.856Z,97809.16
2022-08-07T03:21:08.558Z,97811.16
2022-08-07T03:24:20.785Z,97811.38
2022-08-07T03:26:32.561Z,97811.66
2022-08-07T03:29:06.444Z,97812.13
2022-08-07T03:31:46.340Z,97816.38
2022-08-07T03:34:18.542Z,97816.42
2022-08-07T03:36:54.249Z,97816.20
2022-08-07T03:40:00.045Z,97818.72
2022-08-07T03:42:17.387Z,97823.35
2022-08-07T03:44:53.178Z,97828.68
2022-08-07T03:47:22.699Z,97829.95
2022-08-07T03:49:52.507Z,97827.13
2022-08-07T03:52:27.594Z,97827.86
2022-08-07T03:55:07.110Z,97824.78
2022-08-07T03:58:34.647Z,97826.58
2022-08-07T04:00:33.651Z,97822.64
2022-08-07T04:03:04.780Z,97825.45
2022-08-07T04:05:40.845Z,97828.29
2022-08-07T04:08:21.332Z,97829.14
2022-08-07T04:10:53.868Z,97833.24
2022-08-07T04:14:09.981Z,97833.85
2022-08-07T04:16:30.372Z,97836.50
2022-08-07T04:19:04.213Z,97839.10
2022-08-07T04:21:59.479Z,97840.45
2022-08-07T04:24:39.166Z,97841.19
2022-08-07T04:27:15.148Z,97843.03
2022-08-07T04:30:01.549Z,97843.64
2022-08-07T04:32:48.070Z,97845.91
2022-08-07T04:35:27.080Z,97849.14
2022-08-07T04:38:03.537Z,97853.58
2022-08-07T04:40:52.106Z,97856.25
2022-08-07T04:44:13.259Z,97858.35
2022-08-07T04:47:04.288Z,97860.02
2022-08-07T04:49:42.683Z,97852.86
2022-08-07T04:52:51.967Z,97855.94
2022-08-07T04:58:15.618Z,97854.73
2022-08-07T04:58:47.531Z,97857.59
2022-08-07T05:01:50.560Z,97861.80
2022-08-07T05:04:31.133Z,97863.16
2022-08-07T05:07:19.507Z,97861.98
2022-08-07T05:09:57.071Z,97864.00
2022-08-07T05:12:35.223Z,97869.71
2022-08-07T05:15:23.246Z,97874.00
2022-08-07T05:18:01.308Z,97876.94
2022-08-07T05:20:38.489Z,97880.36
2022-08-07T05:23:15.717Z,97883.64
2022-08-07T05:26:13.804Z,97883.49
2022-08-07T05:28:37.193Z,97883.95
2022-08-07T05:31:14.652Z,97882.16
2022-08-07T05:34:01.558Z,97881.86
2022-08-07T05:36:39.122Z,97879.54
2022-08-07T05:40:06.920Z,97880.17
2022-08-07T05:42:07.567Z,97881.96
2022-08-07T05:44:41.524Z,97883.30
2022-08-07T05:47:38.587Z,97886.81
2022-08-07T05:50:10.166Z,97891.23
2022-08-07T05:52:38.670Z,97889.81
2022-08-07T05:55:10.789Z,97893.05
2022-08-07T05:57:43.235Z,97895.09
2022-08-07T06:00:16.473Z,97894.51
2022-08-07T06:02:51.978Z,97893.16
2022-08-07T06:05:28.332Z,97896.05
2022-08-07T06:08:12.339Z,97899.21
2022-08-07T06:10:51.384Z,97897.30
2022-08-07T06:14:12.502Z,97894.65
2022-08-07T06:16:15.089Z,97892.61
2022-08-07T06:18:51.698Z,97893.04
2022-08-07T06:22:15.116Z,97888.66
2022-08-07T06:24:38.212Z,97887.70
2022-08-07T06:27:03.751Z,97893.27
2022-08-07T06:29:34.063Z,97891.20
2022-08-07T06:32:02.671Z,97891.96
2022-08-07T06:34:33.302Z,97890.55
2022-08-07T06:37:02.811Z,97889.98
2022-08-07T06:40:12.972Z,97893.27
2022-08-07T06:42:37.276Z,97892.71
2022-08-07T06:45:18.188Z,97889.50
2022-08-07T06:47:58.594Z,97886.89
2022-08-07T06:50:39.131Z,97885.22
2022-08-07T06:54:12.131Z,97882.27
2022-08-07T06:56:14.767Z,97880.10
2022-08-07T07:00:13.187Z,97878.09
2022-08-07T07:01:43.640Z,97877.08
2022-08-07T07:04:32.424Z,97876.73
2022-08-07T07:07:18.854Z,97879.70
2022-08-07T07:09:50.804Z,97880.69
2022-08-07T07:12:30.749Z,97883.63
2022-08-07T07:15:35.832Z,97888.48
2022-08-07T07:18:09.080Z,97886.44
2022-08-07T07:20:46.487Z,97880.82
2022-08-07T07:24:10.288Z,97879.89
2022-08-07T07:26:33.837Z,97880.77
2022-08-07T07:29:38.513Z,97877.83
2022-08-07T07:32:03.788Z,97874.48
2022-08-07T07:34:34.928Z,97874.27
2022-08-07T07:37:45.099Z,97876.76
2022-08-07T07:40:00.163Z,97877.67
2022-08-07T07:42:32.872Z,97875.94
2022-08-07T07:45:03.948Z,97876.75
2022-08-07T07:47:51.751Z,97877.08
2022-08-07T07:50:34.755Z,97876.20
2022-08-07T07:53:20.437Z,97873.71
2022-08-07T07:56:00.993Z,97870.52
2022-08-07T07:58:40.654Z,97871.55
2022-08-07T08:02:03.943Z,97871.11
2022-08-07T08:04:09.310Z,97866.60
2022-08-07T08:06:50.999Z,97867.14
2022-08-07T08:09:29.443Z,97866.67
2022-08-07T08:12:03.812Z,97864.23
2022-08-07T08:14:36.245Z,97860.65
2022-08-07T08:17:55.731Z,97856.42
2022-08-07T08:20:17.446Z,97858.20
2022-08-07T08:23:10.955Z,97857.57
2022-08-07T08:26:16.202Z,97857.57
2022-08-07T08:28:46.173Z,97862.85
2022-08-07T08:31:22.665Z,97861.14
2022-08-07T08:34:01.362Z,97854.48
2022-08-07T08:36:34.655Z,97854.30
2022-08-07T08:39:03.319Z,97853.77
2022-08-07T08:41:58.398Z,97856.55
2022-08-07T08:45:10.721Z,97851.02
2022-08-07T08:48:04.856Z,97849.10
2022-08-07T08:50:42.451Z,97852.01
2022-08-07T08:53:52.074Z,97852.10
2022-08-07T08:56:32.779Z,97852.65
2022-08-07T08:59:13.611Z,97851.63
2022-08-07T09:01:52.821Z,97852.25
2022-08-07T09:04:43.457Z,97854.08
2022-08-07T09:07:11.588Z,97850.80
2022-08-07T09:10:08.017Z,97847.48
2022-08-07T09:12:56.973Z,97848.01
2022-08-07T09:16:25.527Z,97851.91
2022-08-07T09:19:52.943Z,97848.36
2022-08-07T09:24:27.469Z,97848.19
2022-08-07T09:25:25.079Z,97845.52
2022-08-07T09:30:05.064Z,97846.36
2022-08-07T09:31:38.842Z,97841.48
2022-08-07T09:34:29.960Z,97836.65
2022-08-07T09:37:07.757Z,97837.81
2022-08-07T09:39:54.834Z,97830.81
2022-08-07T09:42:53.457Z,97827.44
2022-08-07T09:47:27.829Z,97827.85
2022-08-07T09:48:55.888Z,97825.45
2022-08-07T09:52:34.228Z,97821.09
2022-08-07T09:56:04.375Z,97822.41
2022-08-07T09:59:37.109Z,97819.70
2022-08-07T10:02:29.795Z,97814.11
2022-08-07T10:05:14.827Z,97812.44
2022-08-07T10:08:04.557Z,97808.38
2022-08-07T10:12:00.167Z,97805.02
2022-08-07T10:14:01.707Z,97807.13
2022-08-07T10:16:43.167Z,97807.98
2022-08-07T10:19:31.531Z,97805.04
2022-08-07T10:22:45.217Z,97799.96
2022-08-07T10:25:22.813Z,97801.66
2022-08-07T10:28:08.274Z,97804.96
2022-08-07T10:30:52.274Z,97804.54
2022-08-07T10:34:14.483Z,97802.00
2022-08-07T10:36:54.949Z,97797.77
2022-08-07T10:40:14.993Z,97798.83
2022-08-07T10:43:15.472Z,97795.15
2022-08-07T10:45:58.014Z,97793.50
2022-08-07T10:48:39.228Z,97791.48
2022-08-07T10:52:01.494Z,97783.68
2022-08-07T10:54:53.535Z,97789.41
2022-08-07T10:57:39.592Z,97783.70
2022-08-07T11:00:36.802Z,97769.41
2022-08-07T11:03:28.147Z,97771.89
2022-08-07T11:06:22.169Z,97770.71
2022-08-07T11:09:03.102Z,97765.62
2022-08-07T11:11:40.099Z,97764.53
2022-08-07T11:14:57.414Z,97761.28
2022-08-07T11:17:43.344Z,97758.52
2022-08-07T11:21:05.219Z,97756.35
2022-08-07T11:24:14.183Z,97751.62
2022-08-07T11:26:50.886Z,97742.45
2022-08-07T11:30:18.356Z,97732.70
2022-08-07T11:33:53.673Z,97729.31
2022-08-07T11:36:37.903Z,97732.70
2022-08-07T11:39:14.642Z,97730.75
2022-08-07T11:42:08.246Z,97729.40
2022-08-07T11:45:36.091Z,97727.61
2022-08-07T11:48:29.400Z,97721.30
2022-08-07T11:51:41.904Z,97720.45
2022-08-07T11:54:56.361Z,97714.44
2022-08-07T11:58:00.344Z,97712.56
2022-08-07T12:00:48.873Z,97707.09
2022-08-07T12:04:09.456Z,97703.85
2022-08-07T12:07:00.997Z,97706.14
2022-08-07T12:09:54.173Z,97703.48
2022-08-07T12:12:41.714Z,97702.12
2022-08-07T12:15:46.714Z,97696.34
2022-08-07T12:18:29.878Z,97690.01
2022-08-07T12:21:03.252Z,97681.55
2022-08-07T12:24:04.964Z,97686.13
2022-08-07T12:26:46.123Z,97677.83
2022-08-07T12:29:37.674Z,97673.80
2022-08-07T12:32:31.749Z,97673.60
2022-08-07T12:35:03.082Z,97674.87
2022-08-07T12:38:09.661Z,97672.44
2022-08-07T12:40:47.091Z,97672.57
2022-08-07T12:44:04.498Z,97670.53
2022-08-07T12:46:26.627Z,97665.29
2022-08-07T12:49:51.803Z,97661.41
2022-08-07T12:52:38.640Z,97660.58
2022-08-07T12:55:18.341Z,97658.41
2022-08-07T12:58:00.781Z,97656.31
2022-08-07T13:01:12.695Z,97656.75
2022-08-07T13:04:31.718Z,97653.89
2022-08-07T13:08:14.336Z,97654.95
2022-08-07T13:10:39.497Z,97655.59
2022-08-07T13:13:48.409Z,97651.16
2022-08-07T13:16:53.735Z,97647.08
2022-08-07T13:19:51.074Z,97645.85
2022-08-07T13:22:52.394Z,97646.83
2022-08-07T13:25:34.955Z,97646.45
2022-08-07T13:28:14.213Z,97646.73
2022-08-07T13:31:01.924Z,97646.19
2022-08-07T13:34:31.725Z,97647.89
2022-08-07T13:36:45.463Z,97644.46
2022-08-07T13:40:35.033Z,97640.43
2022-08-07T13:42:40.898Z,97642.82
2022-08-07T13:46:07.094Z,97640.98
2022-08-07T13:48:08.262Z,97642.75
2022-08-07T13:50:45.096Z,97634.77
2022-08-07T13:53:59.718Z,97639.61
2022-08-07T13:56:35.734Z,97637.96
2022-08-07T13:59:21.684Z,97639.08
2022-08-07T14:02:12.885Z,97636.89
2022-08-07T14:04:49.422Z,97635.55
2022-08-07T14:07:23.054Z,97632.91
2022-08-07T14:10:02.858Z,97636.14
2022-08-07T14:12:49.490Z,97635.17
2022-08-07T14:15:25.750Z,97638.42
2022-08-07T14:18:23.917Z,97641.55
2022-08-07T14:20:54.537Z,97648.48
2022-08-07T14:23:59.018Z,97651.58
2022-08-07T14:26:28.335Z,97654.98
2022-08-07T14:29:10.584Z,97661.46
2022-08-07T14:31:53.325Z,97657.02
2022-08-07T14:37:19.254Z,97656.96
2022-08-07T14:40:17.436Z,97659.68
2022-08-07T14:43:01.497Z,97663.91
2022-08-07T14:45:49.637Z,97659.72
2022-08-07T14:48:22.391Z,97657.89
2022-08-07T14:51:00.128Z,97657.81
2022-08-07T14:56:30.613Z,97653.02
2022-08-07T14:59:13.668Z,97659.79
2022-08-07T15:05:01.693Z,97660.66
2022-08-07T15:07:51.020Z,97661.59
2022-08-07T15:10:29.566Z,97667.91
2022-08-07T15:13:12.276Z,97668.50
2022-08-07T15:18:45.514Z,97674.73
2022-08-07T15:21:44.053Z,97670.88
2022-08-07T15:25:13.162Z,97670.33
2022-08-07T15:27:10.410Z,97673.00
2022-08-07T15:30:08.843Z,97677.88
2022-08-07T15:32:39.622Z,97680.10
2022-08-07T15:35:19.687Z,97684.95
2022-08-07T15:41:23.502Z,97687.79
2022-08-07T15:44:01.041Z,97690.98
2022-08-07T15:46:39.329Z,97692.39
2022-08-07T15:50:04.929Z,97692.71
2022-08-07T15:52:29.638Z,97696.20
2022-08-07T15:55:08.666Z,97700.91
2022-08-07T15:57:48.682Z,97701.45
2022-08-07T16:00:31.079Z,97705.20
2022-08-07T16:03:21.533Z,97706.59
2022-08-07T16:06:25.496Z,97707.34
2022-08-07T16:09:22.439Z,97702.94
2022-08-07T16:12:13.286Z,97707.63
2022-08-07T16:15:54.521Z,97706.45
2022-08-07T16:18:59.720Z,97706.45
2022-08-07T16:22:31.549Z,97707.46
2022-08-07T16:25:23.395Z,97712.98
2022-08-07T16:30:06.346Z,97712.33
2022-08-07T16:32:03.898Z,97717.59
2022-08-07T16:34:41.714Z,97722.23
2022-08-07T16:38:04.607Z,97724.65
2022-08-07T16:40:28.215Z,97729.38
2022-08-07T16:43:07.742Z,97732.08
2022-08-07T16:46:47.136Z,97734.86
2022-08-07T16:50:20.100Z,97739.70
2022-08-07T16:52:51.834Z,97746.40
2022-08-07T16:55:47.228Z,97748.91
2022-08-07T16:58:16.144Z,97752.52
2022-08-07T17:01:19.867Z,97756.63
2022-08-07T17:04:00.035Z,97758.88
2022-08-07T17:07:03.305Z,97762.50
2022-08-07T17:10:06.560Z,97760.64
2022-08-07T17:12:53.059Z,97762.08
2022-08-07T17:15:44.684Z,97761.59
2022-08-07T17:18:41.497Z,97765.73
2022-08-07T17:21:24.588Z,97768.03
2022-08-07T17:24:25.092Z,97766.02
2022-08-07T17:27:29.696Z,97764.13
2022-08-07T17:30:16.122Z,97769.02
2022-08-07T17:34:08.846Z,97773.04
2022-08-07T17:36:27.416Z,97773.73
2022-08-07T17:39:19.940Z,97778.40
2022-08-07T17:42:29.916Z,97779.79
2022-08-07T17:44:59.658Z,97780.04
2022-08-07T17:47:44.665Z,97781.07
2022-08-07T17:50:50.333Z,97784.16
2022-08-07T17:54:01.493Z,97784.94
2022-08-07T17:56:49.366Z,97787.42
2022-08-07T17:59:24.446Z,97790.98
2022-08-07T18:01:56.821Z,97792.52
2022-08-07T18:04:51.997Z,97790.63
2022-08-07T18:07:37.846Z,97790.17
2022-08-07T18:12:07.562Z,97792.90
2022-08-07T18:13:41.773Z,97795.17
2022-08-07T18:16:33.066Z,97797.45
2022-08-07T18:21:10.626Z,97802.01
2022-08-07T18:22:26.914Z,97807.45
2022-08-07T18:25:23.986Z,97810.41
2022-08-07T18:28:35.434Z,97817.27
2022-08-07T18:31:18.422Z,97823.98
2022-08-07T18:34:35.741Z,97829.11
2022-08-07T18:37:12.593Z,97832.88
2022-08-07T18:40:08.055Z,97829.95
2022-08-07T18:42:44.276Z,97829.33
2022-08-07T18:45:40.274Z,97833.42
2022-08-07T18:49:23.729Z,97835.70
2022-08-07T18:52:34.631Z,97834.20
2022-08-07T18:54:49.818Z,97835.96
2022-08-07T18:57:38.056Z,97835.82
2022-08-07T19:00:32.564Z,97835.77
2022-08-07T19:03:15.917Z,97840.06
2022-08-07T19:06:03.825Z,97842.73
2022-08-07T19:08:35.381Z,97843.63
2022-08-07T19:11:34.865Z,97844.87
2022-08-07T19:14:11.476Z,97848.40
2022-08-07T19:17:07.921Z,97851.78
2022-08-07T19:19:41.948Z,97860.42
2022-08-07T19:22:30.889Z,97867.86
2022-08-07T19:25:06.461Z,97867.49
2022-08-07T19:30:54.164Z,97868.15
2022-08-07T19:31:02.236Z,97869.56
2022-08-07T19:37:22.255Z,97876.20
2022-08-07T20:08:07.690Z,97878.42
2022-08-07T20:11:01.923Z,97877.10
2022-08-07T20:14:13.538Z,97873.80
2022-08-07T20:18:04.360Z,97877.33
2022-08-07T20:22:04.105Z,97874.05
2022-08-07T20:25:01.867Z,97878.04
2022-08-07T20:27:47.826Z,97882.95
2022-08-07T20:30:22.448Z,97880.55
2022-08-07T20:32:56.182Z,97880.99
2022-08-07T20:35:34.714Z,97882.41
2022-08-07T20:38:11.381Z,97883.75
2022-08-07T20:40:51.591Z,97882.29
2022-08-07T20:43:27.103Z,97882.59
2022-08-07T20:46:26.517Z,97884.14
2022-08-07T20:49:54.247Z,97884.83
2022-08-07T20:51:49.000Z,97885.68
2022-08-07T20:54:30.272Z,97882.73
2022-08-07T20:57:05.536Z,97878.10
2022-08-07T21:00:07.974Z,97884.11
2022-08-07T21:02:54.508Z,97888.84
2022-08-07T21:05:51.233Z,97891.78
2022-08-07T21:08:39.211Z,97890.14
2022-08-07T21:11:21.944Z,97892.31
2022-08-07T21:14:32.091Z,97893.16
2022-08-07T21:16:56.907Z,97893.48
2022-08-07T21:19:51.453Z,97893.40
2022-08-07T21:22:33.253Z,97891.59
2022-08-07T21:25:12.101Z,97892.73
2022-08-07T21:28:07.836Z,97903.34
2022-08-07T21:30:50.365Z,97909.29
2022-08-07T21:33:38.503Z,97911.73
2022-08-07T21:36:42.743Z,97913.94
2022-08-07T21:39:51.742Z,97917.12
2022-08-07T21:42:48.859Z,97918.85
2022-08-07T21:46:05.186Z,97916.27
2022-08-07T21:48:27.692Z,97918.75
2022-08-07T21:51:25.442Z,97918.31
2022-08-07T21:54:22.386Z,97921.84
2022-08-07T21:57:31.214Z,97923.73
2022-08-07T22:00:22.732Z,97922.20
2022-08-07T22:03:05.581Z,97923.19
2022-08-07T22:05:48.314Z,97920.84
2022-08-07T22:08:19.832Z,97918.40
2022-08-07T22:10:51.002Z,97918.05
2022-08-07T22:13:24.189Z,97920.52
2022-08-07T22:16:38.624Z,97919.01
2022-08-07T22:19:08.576Z,97916.69
2022-08-07T22:22:01.729Z,97920.22
2022-08-07T22:25:03.248Z,97929.70
2022-08-07T22:28:07.560Z,97933.59
2022-08-07T22:30:26.490Z,97936.42
2022-08-07T22:33:09.661Z,97935.71
2022-08-07T22:36:06.712Z,97937.56
2022-08-07T22:38:50.632Z,97939.53
2022-08-07T22:42:03.616Z,97941.40
2022-08-07T22:44:26.606Z,97938.55
2022-08-07T22:47:32.781Z,97940.37
2022-08-07T22:50:38.006Z,97942.81
2022-08-07T22:53:19.315Z,97943.02
2022-08-07T22:56:13.182Z,97941.36
2022-08-07T22:59:17.600Z,97939.09
2022-08-07T23:02:06.958Z,97944.73
2022-08-07T23:04:58.548Z,97941.75
2022-08-07T23:08:24.419Z,97942.02
2022-08-07T23:11:20.900Z,97940.81
2022-08-07T23:14:16.613Z,97944.95
2022-08-07T23:16:55.272Z,97944.79
2022-08-07T23:19:51.328Z,97947.63
2022-08-07T23:22:39.793Z,97946.23
2022-08-07T23:25:29.316Z,97944.48
2022-08-07T23:28:35.789Z,97943.59
2022-08-07T23:32:49.621Z,97942.41
2022-08-07T23:35:01.060Z,97943.80
2022-08-07T23:38:01.230Z,97942.02
2022-08-07T23:40:51.841Z,97944.05
2022-08-07T23:43:37.884Z,97948.36
2022-08-07T23:46:23.882Z,97945.14
2022-08-07T23:49:50.186Z,97941.73
2022-08-07T23:53:06.315Z,97940.19
2022-08-07T23:55:52.547Z,97944.29
2022-08-07T23:58:37.857Z,97949.71
